Hauptseite
METAR-TAF:

METAR-TAF

Flughäfen :

Fort-de-France, Martinique

Flughafen Martinique

Breite: 14-36N, Länge: 061-00W, Höhe: 5 m

Beobachtung

Neuester Wetterbericht von vor 25 Minuten, um 23:30 UTC
Wind 8 kt aus Ost
Temperatur 25°C
Luftfeuchtigkeit 74%
Luftdruck 1014 hPa
Sichtweite 10 km oder mehr
Leicht bewölkt in der Höhe von 2800 ft

METAR: TFFF 242330Z AUTO 09008KT 9999 FEW028 25/20 Q1014 NOSIG

Zeit: 19:55 (23:55 UTC)

Prognose

Neuester Wetterbericht von vor 55 Minuten, um 23:00 UTC
Gültige Prognose vom 25 um 00 UTC bis 25 um 24 UTC
Wind 6 kt aus Ost
Sichtweite 10 km oder mehr
Aufgelockert bewölkt in der Höhe von 2600 ft
Wahrscheinlichkeit 30% :
Zeitweise
vom 25 um 03 UTC bis 25 um 18 UTC
Sichtweite: 4000 m
Leicht bewölkt in der Höhe von 2000 ft, Towering cumulus.
Regenschauer

TAF: TFFF 242300Z 2500/2524 08006KT 9999 SCT026 PROB30 TEMPO 2503/2518 4000 SHRA FEW020TCU

Wetterbeobachtungen und Prognosen von mehr als 4000 Flughäfen (METAR und TAF Bericht).

Die verfügbaren Stationen werden durch gelbe und rote Markierungen auf der Karte dargestellt.

Führen Sie die Maus auf sie, um den Namen der Station zu sehen.

Darauf klicken, um die Beobachtung von Wetterbeobachtungen und Prognosen zu sehen.

Um die Karte zu ändern : klicken Sie auf den grünen Tasten mit einem schwarzen Kreuz Zum Vergrößern, auf den grünen Button mit einem Gedankenstrich zu verkleinern, oder auf die grünen Pfeile für benachbarte Karten.


METAR-TAF: